createdAt,value
2022-09-18T00:01:33.228Z,1.20
2022-09-18T00:04:03.645Z,1.20
2022-09-18T00:06:36.408Z,0.80
2022-09-18T00:09:06.844Z,1.40
2022-09-18T00:11:38.959Z,1.10
2022-09-18T00:14:08.679Z,2.60
2022-09-18T00:16:36.434Z,1.37
2022-09-18T00:19:04.157Z,1.53
2022-09-18T00:21:32.829Z,1.00
2022-09-18T00:24:01.945Z,1.10
2022-09-18T00:26:29.287Z,0.90
2022-09-18T00:28:58.113Z,0.80
2022-09-18T00:31:32.822Z,1.30
2022-09-18T00:34:03.221Z,1.07
2022-09-18T00:36:30.737Z,1.40
2022-09-18T00:39:03.347Z,1.67
2022-09-18T00:41:35.184Z,1.10
2022-09-18T00:44:37.501Z,1.37
2022-09-18T00:47:10.513Z,1.00
2022-09-18T00:49:40.959Z,1.13
2022-09-18T00:52:09.068Z,1.10
2022-09-18T00:54:43.859Z,1.10
2022-09-18T00:57:22.638Z,1.47
2022-09-18T00:59:52.080Z,1.33
2022-09-18T01:02:19.619Z,1.17
2022-09-18T01:04:48.667Z,1.33
2022-09-18T01:08:10.859Z,1.00
2022-09-18T01:11:05.119Z,1.20
2022-09-18T01:14:15.335Z,1.20
2022-09-18T01:16:51.074Z,1.43
2022-09-18T01:19:51.350Z,1.33
2022-09-18T01:22:52.065Z,1.00
2022-09-18T01:26:25.218Z,1.20
2022-09-18T01:29:34.702Z,1.03
2022-09-18T01:32:28.179Z,1.10
2022-09-18T01:35:48.014Z,1.27
2022-09-18T01:38:25.997Z,1.00
2022-09-18T01:41:12.968Z,1.00
2022-09-18T01:43:42.541Z,0.80
2022-09-18T01:46:17.374Z,0.97
2022-09-18T01:48:52.309Z,1.20
2022-09-18T01:51:29.772Z,2.20
2022-09-18T01:54:07.278Z,1.00
2022-09-18T01:56:53.357Z,1.40
2022-09-18T01:59:31.466Z,1.33
2022-09-18T02:02:19.352Z,1.60
2022-09-18T02:04:50.184Z,1.00
2022-09-18T02:07:56.240Z,0.90
2022-09-18T02:10:26.249Z,1.00
2022-09-18T02:12:57.533Z,0.90
2022-09-18T02:15:30.472Z,0.90
2022-09-18T02:18:08.336Z,1.23
2022-09-18T02:20:41.240Z,0.90
2022-09-18T02:23:09.253Z,1.47
2022-09-18T02:25:57.816Z,1.07
2022-09-18T02:28:28.614Z,1.70
2022-09-18T02:30:56.039Z,1.47
2022-09-18T02:33:29.391Z,1.53
2022-09-18T02:36:37.872Z,1.27
2022-09-18T02:39:18.526Z,1.10
2022-09-18T02:42:17.475Z,1.50
2022-09-18T02:45:27.761Z,1.17
2022-09-18T02:48:29.884Z,1.30
2022-09-18T02:51:09.682Z,1.03
2022-09-18T02:54:30.244Z,1.10
2022-09-18T02:57:24.406Z,1.33
2022-09-18T02:59:59.581Z,1.20
2022-09-18T03:02:26.901Z,1.47
2022-09-18T03:04:54.870Z,1.20
2022-09-18T03:07:37.150Z,1.20
2022-09-18T03:10:04.997Z,1.00
2022-09-18T03:12:32.412Z,2.03
2022-09-18T03:14:59.634Z,1.40
2022-09-18T03:17:26.660Z,1.23
2022-09-18T03:19:54.214Z,1.30
2022-09-18T03:22:21.185Z,1.70
2022-09-18T03:24:49.233Z,1.03
2022-09-18T03:27:18.361Z,1.57
2022-09-18T03:29:46.221Z,1.67
2022-09-18T03:32:13.453Z,1.83
2022-09-18T03:34:46.357Z,1.30
2022-09-18T03:37:15.384Z,1.40
2022-09-18T03:39:43.284Z,1.70
2022-09-18T03:42:13.794Z,1.30
2022-09-18T03:44:41.112Z,2.07
2022-09-18T03:47:17.611Z,1.97
2022-09-18T03:49:44.834Z,1.57
2022-09-18T03:52:11.753Z,1.30
2022-09-18T03:54:46.300Z,1.73
2022-09-18T03:57:31.928Z,2.00
2022-09-18T04:00:10.613Z,1.43
2022-09-18T04:02:44.049Z,1.50
2022-09-18T04:05:29.752Z,1.50
2022-09-18T04:08:28.930Z,1.60
2022-09-18T04:11:16.449Z,1.77
2022-09-18T04:13:43.389Z,1.40
2022-09-18T04:16:13.291Z,1.90
2022-09-18T04:18:40.507Z,1.17
2022-09-18T04:21:08.964Z,1.30
2022-09-18T04:23:36.012Z,1.30
2022-09-18T04:26:09.112Z,1.30
2022-09-18T04:28:40.378Z,1.17
2022-09-18T04:31:10.578Z,1.33
2022-09-18T04:33:37.728Z,1.73
2022-09-18T04:36:07.479Z,1.33
2022-09-18T04:38:35.724Z,1.37
2022-09-18T04:41:02.626Z,1.03
2022-09-18T04:43:30.497Z,1.63
2022-09-18T04:45:59.226Z,1.20
2022-09-18T04:48:26.326Z,1.13
2022-09-18T04:50:54.405Z,1.40
2022-09-18T04:53:22.371Z,1.40
2022-09-18T04:55:49.823Z,1.20
2022-09-18T04:58:18.772Z,1.53
2022-09-18T05:00:50.669Z,1.60
2022-09-18T05:03:19.608Z,1.87
2022-09-18T05:05:50.377Z,1.67
2022-09-18T05:08:18.262Z,1.30
2022-09-18T05:10:45.396Z,1.97
2022-09-18T05:13:13.125Z,1.80
2022-09-18T05:15:49.061Z,1.47
2022-09-18T05:18:16.840Z,1.90
2022-09-18T05:20:44.813Z,1.97
2022-09-18T05:23:12.025Z,2.07
2022-09-18T05:25:39.013Z,2.03
2022-09-18T05:28:06.188Z,2.00
2022-09-18T05:30:39.948Z,1.47
2022-09-18T05:33:08.241Z,1.90
2022-09-18T05:35:39.933Z,1.50
2022-09-18T05:38:07.160Z,2.67
2022-09-18T05:40:37.401Z,1.80
2022-09-18T05:43:05.952Z,1.40
2022-09-18T05:45:34.757Z,2.30
2022-09-18T05:48:07.193Z,1.83
2022-09-18T05:50:38.269Z,1.40
2022-09-18T05:53:17.632Z,1.80
2022-09-18T05:55:50.920Z,1.47
2022-09-18T05:58:20.684Z,1.50
2022-09-18T06:00:52.428Z,1.57
2022-09-18T06:03:26.651Z,1.70
2022-09-18T06:05:55.009Z,1.80
2022-09-18T06:08:23.153Z,1.30
2022-09-18T06:10:50.520Z,1.60
2022-09-18T06:13:18.799Z,1.70
2022-09-18T06:15:52.479Z,1.20
2022-09-18T06:18:28.577Z,1.30
2022-09-18T06:20:59.601Z,1.50
2022-09-18T06:23:29.652Z,1.80
2022-09-18T06:26:07.321Z,1.50
2022-09-18T06:28:38.410Z,2.00
2022-09-18T06:31:06.362Z,1.60
2022-09-18T06:33:49.783Z,1.17
2022-09-18T06:36:17.068Z,2.03
2022-09-18T06:38:59.264Z,1.13
2022-09-18T06:41:26.766Z,1.43
2022-09-18T06:43:55.100Z,1.40
2022-09-18T06:46:31.628Z,1.77
2022-09-18T06:49:07.146Z,1.13
2022-09-18T06:51:34.199Z,1.20
2022-09-18T06:54:07.122Z,1.23
2022-09-18T06:56:34.433Z,1.33
2022-09-18T06:59:01.651Z,1.23
2022-09-18T07:01:29.421Z,1.50
2022-09-18T07:04:08.049Z,1.20
2022-09-18T07:06:45.913Z,1.87
2022-09-18T07:09:14.212Z,1.60
2022-09-18T07:11:53.503Z,1.73
2022-09-18T07:14:27.013Z,1.40
2022-09-18T07:16:58.067Z,1.47
2022-09-18T07:19:25.019Z,1.43
2022-09-18T07:21:52.937Z,1.27
2022-09-18T07:24:20.212Z,1.40
2022-09-18T07:26:47.774Z,0.93
2022-09-18T07:29:14.864Z,2.10
2022-09-18T07:31:41.810Z,1.50
2022-09-18T07:34:12.404Z,1.30
2022-09-18T07:36:39.320Z,2.17
2022-09-18T07:39:06.430Z,1.63
2022-09-18T07:41:49.757Z,1.60
2022-09-18T07:44:16.852Z,1.40
2022-09-18T07:46:43.805Z,1.30
2022-09-18T07:49:12.459Z,1.20
2022-09-18T07:51:41.568Z,1.10
2022-09-18T07:54:09.977Z,1.10
2022-09-18T07:56:50.894Z,1.30
2022-09-18T07:59:21.546Z,1.07
2022-09-18T08:01:55.962Z,1.37
2022-09-18T08:04:25.423Z,0.97
2022-09-18T08:07:04.349Z,1.30
2022-09-18T08:09:55.273Z,1.57
2022-09-18T08:12:42.462Z,1.30
2022-09-18T08:15:10.368Z,1.10
2022-09-18T08:18:01.172Z,1.33
2022-09-18T08:20:47.080Z,1.10
2022-09-18T08:23:35.619Z,0.90
2022-09-18T08:26:05.126Z,1.40
2022-09-18T08:28:32.701Z,0.97
2022-09-18T08:31:01.766Z,1.17
2022-09-18T08:33:29.020Z,1.37
2022-09-18T08:35:56.151Z,1.03
2022-09-18T08:38:37.668Z,1.30
2022-09-18T08:41:54.880Z,1.17
2022-09-18T08:44:34.957Z,1.00
2022-09-18T08:47:26.885Z,1.10
2022-09-18T08:50:26.588Z,1.10
2022-09-18T08:53:23.063Z,0.87
2022-09-18T08:56:20.992Z,1.00
2022-09-18T08:59:45.017Z,1.10
2022-09-18T09:02:48.522Z,1.20
2022-09-18T09:05:35.528Z,1.13
2022-09-18T09:08:32.328Z,1.00
2022-09-18T09:11:29.807Z,1.30
2022-09-18T09:14:45.921Z,1.27
2022-09-18T09:17:50.581Z,1.30
2022-09-18T09:20:35.132Z,2.03
2022-09-18T09:23:17.521Z,1.53
2022-09-18T09:26:16.485Z,1.37
2022-09-18T09:29:02.963Z,1.40
2022-09-18T09:31:59.082Z,1.17
2022-09-18T09:34:58.985Z,1.07
2022-09-18T09:37:48.782Z,1.53
2022-09-18T09:40:41.400Z,0.93
2022-09-18T09:43:30.988Z,0.97
2022-09-18T09:46:18.065Z,1.20
2022-09-18T09:49:05.393Z,1.17
2022-09-18T09:52:04.609Z,1.20
2022-09-18T09:54:35.404Z,0.73
2022-09-18T09:57:45.261Z,0.80
2022-09-18T10:00:18.137Z,1.07
2022-09-18T10:03:52.825Z,1.10
2022-09-18T10:07:08.107Z,1.27
2022-09-18T10:09:44.877Z,1.10
2022-09-18T10:13:04.710Z,1.03
2022-09-18T10:15:41.856Z,0.93
2022-09-18T10:18:19.388Z,0.80
2022-09-18T10:20:48.193Z,0.60
2022-09-18T10:24:00.693Z,0.80
2022-09-18T10:26:39.750Z,1.20
2022-09-18T10:29:09.499Z,0.73
2022-09-18T10:31:56.849Z,0.90
2022-09-18T10:34:40.575Z,0.80
2022-09-18T10:37:39.851Z,0.70
2022-09-18T10:40:37.190Z,0.80
2022-09-18T10:43:07.717Z,0.70
2022-09-18T10:45:41.741Z,0.60
2022-09-18T10:48:32.114Z,0.70
2022-09-18T10:51:01.640Z,0.73
2022-09-18T10:53:45.337Z,0.67
2022-09-18T10:56:21.971Z,0.80
2022-09-18T10:58:52.615Z,0.97
2022-09-18T11:01:20.786Z,0.67
2022-09-18T11:04:04.996Z,0.50
2022-09-18T11:06:37.912Z,0.70
2022-09-18T11:09:23.508Z,0.63
2022-09-18T11:11:52.115Z,0.87
2022-09-18T11:14:32.167Z,0.80
2022-09-18T11:17:05.199Z,0.60
2022-09-18T11:19:39.347Z,0.50
2022-09-18T11:22:50.632Z,0.53
2022-09-18T11:25:31.007Z,0.70
2022-09-18T11:28:30.144Z,0.70
2022-09-18T11:31:16.811Z,0.80
2022-09-18T11:33:52.133Z,0.53
2022-09-18T11:36:32.015Z,0.70
2022-09-18T11:39:55.726Z,0.67
2022-09-18T11:42:25.828Z,0.70
2022-09-18T11:44:53.654Z,0.73
2022-09-18T11:47:43.118Z,0.80
2022-09-18T11:50:29.471Z,0.93
2022-09-18T11:53:09.253Z,0.70
2022-09-18T11:55:52.699Z,0.70
2022-09-18T11:58:35.092Z,0.87
2022-09-18T12:01:33.229Z,0.70
2022-09-18T12:04:35.164Z,0.50
2022-09-18T12:07:37.938Z,0.53
2022-09-18T12:10:49.423Z,0.80
2022-09-18T12:14:01.215Z,0.90
2022-09-18T12:17:00.624Z,0.70
2022-09-18T12:19:49.872Z,0.80
2022-09-18T12:22:31.877Z,0.60
2022-09-18T12:25:00.936Z,0.80
2022-09-18T12:28:29.131Z,0.70
2022-09-18T12:31:39.796Z,1.60
2022-09-18T12:34:28.867Z,0.60
2022-09-18T12:37:40.436Z,0.73
2022-09-18T12:40:33.942Z,0.60
2022-09-18T12:43:47.368Z,0.80
2022-09-18T12:46:59.890Z,0.60
2022-09-18T12:49:54.396Z,0.70
2022-09-18T12:53:26.033Z,0.70
2022-09-18T12:56:24.125Z,0.60
2022-09-18T12:59:09.364Z,0.77
2022-09-18T13:01:45.190Z,0.77
2022-09-18T13:04:46.647Z,0.60
2022-09-18T13:07:19.069Z,0.70
2022-09-18T13:10:11.775Z,0.60
2022-09-18T13:12:53.029Z,0.73
2022-09-18T13:15:25.709Z,0.53
2022-09-18T13:18:04.228Z,0.40
2022-09-18T13:20:40.423Z,0.83
2022-09-18T13:23:17.899Z,0.80
2022-09-18T13:25:47.871Z,0.80
2022-09-18T13:28:19.671Z,0.57
2022-09-18T13:31:07.406Z,0.70
2022-09-18T13:33:34.556Z,0.60
2022-09-18T13:36:01.990Z,0.50
2022-09-18T13:38:30.085Z,0.57
2022-09-18T13:41:04.860Z,0.40
2022-09-18T13:43:39.205Z,0.60
2022-09-18T13:46:07.580Z,0.70
2022-09-18T13:48:46.448Z,0.73
2022-09-18T13:51:32.974Z,0.60
2022-09-18T13:54:23.126Z,0.70
2022-09-18T13:57:14.791Z,0.50
2022-09-18T14:00:01.878Z,0.50
2022-09-18T14:02:41.001Z,0.67
2022-09-18T14:05:34.985Z,0.70
2022-09-18T14:08:24.289Z,0.63
2022-09-18T14:11:17.771Z,0.97
2022-09-18T14:13:58.877Z,0.53
2022-09-18T14:16:33.199Z,0.83
2022-09-18T14:19:18.060Z,0.57
2022-09-18T14:21:45.248Z,0.80
2022-09-18T14:24:46.433Z,0.60
2022-09-18T14:27:57.941Z,0.50
2022-09-18T14:30:31.141Z,0.67
2022-09-18T14:33:09.174Z,0.57
2022-09-18T14:35:55.618Z,0.50
2022-09-18T14:38:28.779Z,0.60
2022-09-18T14:41:21.973Z,0.60
2022-09-18T14:43:58.821Z,0.77
2022-09-18T14:46:27.992Z,0.53
2022-09-18T14:48:55.986Z,0.60
2022-09-18T14:51:40.618Z,0.50
2022-09-18T14:54:24.754Z,0.57
2022-09-18T14:57:00.179Z,0.83
2022-09-18T14:59:29.200Z,0.60
2022-09-18T15:02:31.553Z,0.80
2022-09-18T15:05:01.855Z,0.40
2022-09-18T15:07:29.915Z,0.60
2022-09-18T15:10:01.289Z,0.57
2022-09-18T15:12:30.624Z,0.90
2022-09-18T15:14:58.993Z,0.70
2022-09-18T15:17:28.518Z,0.70
2022-09-18T15:20:02.288Z,0.60
2022-09-18T15:22:30.439Z,0.80
2022-09-18T15:25:00.978Z,0.50
2022-09-18T15:27:29.823Z,0.70
2022-09-18T15:30:06.692Z,0.50
2022-09-18T15:32:44.699Z,0.60
2022-09-18T15:35:23.300Z,0.60
2022-09-18T15:38:03.049Z,0.47
2022-09-18T15:40:38.908Z,0.57
2022-09-18T15:43:30.082Z,0.60
2022-09-18T15:46:10.660Z,0.50
2022-09-18T15:48:48.174Z,0.60
2022-09-18T15:51:24.763Z,0.67
2022-09-18T15:54:17.691Z,0.50
2022-09-18T15:56:57.777Z,0.63
2022-09-18T15:59:36.975Z,0.80
2022-09-18T16:02:22.204Z,0.60
2022-09-18T16:04:49.344Z,0.80
2022-09-18T16:07:16.163Z,0.60
2022-09-18T16:09:45.898Z,1.00
2022-09-18T16:12:31.090Z,1.00
2022-09-18T16:15:20.616Z,0.70
2022-09-18T16:18:03.962Z,0.83
2022-09-18T16:20:49.765Z,0.40
2022-09-18T16:23:51.382Z,0.60
2022-09-18T16:26:29.436Z,0.90
2022-09-18T16:29:04.015Z,0.70
2022-09-18T16:31:35.011Z,0.70
2022-09-18T16:34:03.548Z,0.87
2022-09-18T16:36:41.443Z,0.60
2022-09-18T16:39:18.062Z,0.70
2022-09-18T16:41:46.925Z,0.73
2022-09-18T16:44:15.932Z,0.97
2022-09-18T16:47:00.396Z,0.60
2022-09-18T16:49:35.650Z,0.83
2022-09-18T16:52:03.101Z,0.90
2022-09-18T16:54:30.083Z,0.50
2022-09-18T16:57:20.571Z,0.80
2022-09-18T16:59:49.628Z,0.80
2022-09-18T17:02:20.447Z,0.70
2022-09-18T17:04:48.657Z,1.00
2022-09-18T17:07:15.644Z,0.90
2022-09-18T17:09:42.781Z,1.00
2022-09-18T17:12:09.925Z,0.60
2022-09-18T17:14:36.989Z,1.23
2022-09-18T17:17:06.006Z,0.70
2022-09-18T17:19:33.104Z,0.60
2022-09-18T17:22:00.053Z,0.70
2022-09-18T17:24:28.013Z,0.90
2022-09-18T17:26:55.176Z,0.80
2022-09-18T17:29:22.253Z,0.80
2022-09-18T17:31:49.516Z,1.17
2022-09-18T17:34:16.622Z,1.00
2022-09-18T17:36:43.965Z,1.43
2022-09-18T17:39:11.957Z,1.20
2022-09-18T17:41:40.665Z,1.30
2022-09-18T17:44:07.555Z,1.40
2022-09-18T17:46:35.202Z,1.03
2022-09-18T17:49:02.258Z,0.97
2022-09-18T17:51:29.428Z,1.07
2022-09-18T17:54:03.663Z,0.63
2022-09-18T17:56:32.628Z,0.90
2022-09-18T17:59:05.542Z,1.30
2022-09-18T18:01:37.429Z,0.70
2022-09-18T18:04:05.723Z,0.70
2022-09-18T18:06:33.731Z,0.70
2022-09-18T18:09:01.076Z,0.70
2022-09-18T18:11:38.113Z,0.87
2022-09-18T18:14:06.144Z,0.80
2022-09-18T18:16:34.540Z,0.97
2022-09-18T18:19:06.291Z,0.77
2022-09-18T18:22:20.091Z,1.03
2022-09-18T18:24:49.610Z,0.77
2022-09-18T18:27:18.399Z,0.70
2022-09-18T18:29:45.459Z,0.57
2022-09-18T18:32:15.019Z,0.90
2022-09-18T18:34:42.005Z,1.03
2022-09-18T18:37:08.932Z,0.60
2022-09-18T18:39:35.899Z,0.50
2022-09-18T18:42:03.019Z,0.50
2022-09-18T18:44:29.947Z,0.70
2022-09-18T18:46:56.963Z,0.57
2022-09-18T18:49:24.124Z,0.73
2022-09-18T18:51:51.969Z,0.90
2022-09-18T18:54:22.023Z,0.80
2022-09-18T18:56:50.261Z,0.90
2022-09-18T18:59:19.685Z,0.93
2022-09-18T19:01:47.442Z,1.73
2022-09-18T19:04:18.977Z,0.87
2022-09-18T19:06:46.140Z,0.80
2022-09-18T19:09:28.491Z,0.57
2022-09-18T19:11:55.550Z,0.90
2022-09-18T19:14:31.728Z,0.60
2022-09-18T19:16:59.503Z,0.60
2022-09-18T19:19:28.393Z,0.70
2022-09-18T19:21:59.739Z,0.77
2022-09-18T19:24:28.215Z,0.83
2022-09-18T19:26:55.373Z,0.83
2022-09-18T19:29:22.547Z,0.50
2022-09-18T19:31:50.467Z,0.60
2022-09-18T19:34:21.978Z,0.80
2022-09-18T19:36:50.213Z,1.03
2022-09-18T19:39:21.192Z,0.60
2022-09-18T19:42:12.979Z,0.60
2022-09-18T19:45:01.559Z,0.70
2022-09-18T19:47:37.806Z,0.97
2022-09-18T19:50:05.973Z,0.87
2022-09-18T19:52:33.339Z,0.70
2022-09-18T19:55:00.230Z,0.60
2022-09-18T19:57:28.580Z,1.20
2022-09-18T19:59:57.169Z,0.70
2022-09-18T20:02:25.443Z,0.60
2022-09-18T20:04:52.606Z,0.90
2022-09-18T20:07:19.588Z,0.90
2022-09-18T20:09:46.534Z,0.77
2022-09-18T20:12:13.712Z,0.90
2022-09-18T20:14:40.851Z,1.07
2022-09-18T20:17:08.319Z,1.00
2022-09-18T20:19:36.016Z,1.10
2022-09-18T20:22:04.016Z,0.93
2022-09-18T20:24:31.968Z,1.03
2022-09-18T20:27:00.628Z,1.00
2022-09-18T20:29:29.113Z,0.90
2022-09-18T20:31:56.241Z,0.70
2022-09-18T20:34:24.921Z,1.07
2022-09-18T20:36:53.673Z,1.10
2022-09-18T20:39:21.666Z,0.80
2022-09-18T20:41:50.891Z,1.00
2022-09-18T20:44:18.340Z,0.80
2022-09-18T20:46:45.662Z,0.70
2022-09-18T20:49:17.308Z,0.80
2022-09-18T20:51:44.448Z,1.00
2022-09-18T20:54:14.581Z,0.77
2022-09-18T20:56:43.261Z,0.80
2022-09-18T20:59:16.742Z,1.00
2022-09-18T21:01:46.807Z,1.10
2022-09-18T21:04:17.730Z,0.70
2022-09-18T21:06:55.933Z,0.77
2022-09-18T21:09:26.466Z,0.97
2022-09-18T21:11:54.809Z,1.00
2022-09-18T21:14:24.060Z,0.97
2022-09-18T21:16:51.526Z,1.00
2022-09-18T21:19:20.066Z,0.70
2022-09-18T21:21:48.555Z,0.87
2022-09-18T21:24:16.318Z,0.70
2022-09-18T21:26:52.319Z,0.80
2022-09-18T21:29:26.578Z,0.73
2022-09-18T21:31:57.901Z,1.10
2022-09-18T21:34:30.196Z,1.33
2022-09-18T21:37:05.723Z,0.90
2022-09-18T21:39:32.840Z,0.73
2022-09-18T21:42:01.604Z,0.70
2022-09-18T21:44:31.942Z,0.80
2022-09-18T21:47:02.460Z,1.30
2022-09-18T21:49:30.184Z,1.20
2022-09-18T21:52:01.645Z,1.00
2022-09-18T21:54:29.204Z,0.97
2022-09-18T21:56:56.686Z,0.90
2022-09-18T21:59:27.200Z,0.90
2022-09-18T22:01:55.162Z,1.33
2022-09-18T22:04:32.431Z,1.00
2022-09-18T22:07:01.557Z,0.90
2022-09-18T22:09:36.521Z,0.83
2022-09-18T22:12:05.367Z,0.93
2022-09-18T22:14:34.915Z,1.00
2022-09-18T22:17:09.345Z,1.00
2022-09-18T22:19:41.144Z,0.87
2022-09-18T22:22:08.922Z,1.00
2022-09-18T22:24:36.004Z,0.67
2022-09-18T22:27:08.512Z,1.00
2022-09-18T22:29:38.543Z,1.30
2022-09-18T22:32:06.581Z,1.37
2022-09-18T22:34:34.912Z,1.17
2022-09-18T22:37:03.173Z,0.93
2022-09-18T22:39:30.792Z,1.37
2022-09-18T22:41:57.918Z,1.30
2022-09-18T22:44:25.509Z,1.23
2022-09-18T22:46:53.592Z,1.33
2022-09-18T22:49:22.731Z,1.20
2022-09-18T22:51:50.587Z,1.37
2022-09-18T22:54:23.732Z,1.50
2022-09-18T22:56:52.386Z,1.10
2022-09-18T22:59:23.033Z,1.50
2022-09-18T23:01:58.165Z,1.20
2022-09-18T23:04:29.202Z,1.10
2022-09-18T23:06:57.735Z,1.67
2022-09-18T23:09:25.988Z,1.10
2022-09-18T23:11:53.462Z,1.50
2022-09-18T23:14:28.756Z,1.10
2022-09-18T23:16:58.044Z,1.33
2022-09-18T23:19:35.150Z,1.10
2022-09-18T23:22:02.729Z,1.30
2022-09-18T23:24:31.611Z,1.27
2022-09-18T23:26:59.097Z,0.80
2022-09-18T23:29:28.360Z,1.10
2022-09-18T23:31:57.706Z,1.50
2022-09-18T23:34:31.261Z,0.93
2022-09-18T23:36:59.792Z,1.00
2022-09-18T23:39:33.528Z,1.50
2022-09-18T23:42:02.603Z,1.70
2022-09-18T23:44:31.299Z,1.43
2022-09-18T23:47:00.050Z,0.97
2022-09-18T23:49:28.744Z,1.27
2022-09-18T23:51:56.548Z,1.27
2022-09-18T23:54:27.217Z,1.30
2022-09-18T23:56:54.923Z,1.47
2022-09-18T23:59:24.434Z,1.37
